KHUA/HUA METAR and TAF weather

Enter ICAO airport designator
Station Type Date Time Source
KHUA METAR 2021/03/01 09:58 UTC NOAA

KHUA 010958Z AUTO 00000KT 6SM -RA BR OVC085 13/13 A2996 RMK AO2 SLP143 P0007 T01310129


Station Type Date Time Source
KHUA Decoded METAR 2021/03/01 09:58 UTC NOAA

Station name not available
Mar 01, 2021 - 04:58 AM EST / 2021.03.01 0958 UTC
Wind: Calm:0
Visibility: 6 mile(s):0
Sky conditions: overcast
Weather: light rain; mist
Precipitation last hour: 0.07 inches
Temperature: 55.6 F (13.1 C)
Dew Point: 55.2 F (12.9 C)
Relative Humidity: 98%
Pressure (altimeter): 29.96 in. Hg (1014 hPa)
ob: KHUA 010958Z AUTO 00000KT 6SM -RA BR OVC085 13/13 A2996 RMK AO2 SLP143 P0007 T01310129
cycle: 10

Station Type Date Time Source
KHUA TAF UTC NOAA

Error!

Example: see airport list